Time;durP1;ratioP1;P1;durP2;ratioP2;P2;SDS_P1;SDS_P2;PMS_P1;PMS_P2;Temp;Humidity;BMP_temperature;BMP_pressure;BME280_temperature;BME280_humidity;BME280_pressure;Samples;Min_cycle;Max_cycle;Signal;HPM_P1;HPM_P2
2022/08/15 00:00:58;;;;;;;;;;;;;;;23.29;100.00;92601.44;5087224;28;19995;-79
2022/08/15 00:03:27;;;;;;;;;;;;;;;23.35;100.00;96043.03;5083596;28;19927;-79
2022/08/15 00:05:54;;;;;;;;;;;;;;;23.22;100.00;98770.09;5074457;28;19920;-80
2022/08/15 00:08:20;;;;;;;;;;;;;;;23.21;100.00;103583.13;5092049;28;19920;-79
2022/08/15 00:10:46;;;;;;;;;;;;;;;23.14;100.00;104601.63;5084270;28;19919;-79
2022/08/15 00:13:14;;;;;;;;;;;;;;;23.11;100.00;104597.94;5076673;28;20011;-79
2022/08/15 00:15:40;;;;;;;;;;;;;;;23.15;100.00;106325.28;5085754;28;19920;-79
2022/08/15 00:18:05;;;;;;;;;;;;;;;23.18;100.00;118743.44;5081634;28;20277;-79
2022/08/15 00:20:31;;;;;;;;;;;;;;;23.17;100.00;118741.34;5092403;28;20020;-79
2022/08/15 00:22:59;;;;;;;;;;;;;;;23.20;100.00;126351.88;5092356;28;19948;-79
2022/08/15 00:25:24;;;;;;;;;;;;;;;23.02;100.00;98393.47;5091525;28;19920;-78
2022/08/15 00:27:51;;;;;;;;;;;;;;;22.90;100.00;82605.16;5090574;28;19916;-79
2022/08/15 00:30:16;;;;;;;;;;;;;;;23.00;100.00;79882.88;5082935;28;19932;-78
2022/08/15 00:32:53;;;;;;;;;;;;;;;22.95;100.00;77483.88;5083553;28;19920;-77
2022/08/15 00:35:37;;;;;;;;;;;;;;;22.77;100.00;67224.81;5075526;28;19920;-77
2022/08/15 00:38:05;;;;;;;;;;;;;;;22.82;100.00;79174.97;5090891;28;19924;-79
2022/08/15 00:41:38;;;;;;;;;;;;;;;22.79;100.00;77120.03;5078136;28;19944;-78
2022/08/15 00:43:16;;;;;;;;;;;;;;;22.67;100.00;73349.97;5079427;28;19920;-79
2022/08/15 00:45:42;;;;;;;;;;;;;;;22.66;100.00;86334.75;5091901;28;19976;-79
2022/08/15 00:50:51;;;;;;;;;;;;;;;22.70;100.00;101774.56;5092915;28;19927;-79
2022/08/15 00:53:19;;;;;;;;;;;;;;;22.77;100.00;106944.38;5079851;28;19921;-79
2022/08/15 00:55:44;;;;;;;;;;;;;;;22.82;100.00;114185.84;5084613;28;20427;-79
2022/08/15 00:58:10;;;;;;;;;;;;;;;22.86;100.00;111782.22;5091229;28;19939;-79
2022/08/15 01:00:44;;;;;;;;;;;;;;;22.81;100.00;99044.81;5085354;28;19928;-78
2022/08/15 01:03:17;;;;;;;;;;;;;;;22.90;100.00;82263.06;5071297;28;19917;-78
2022/08/15 01:05:43;;;;;;;;;;;;;;;23.05;100.00;91533.97;5086972;28;19958;-78
2022/08/15 01:08:08;;;;;;;;;;;;;;;23.01;100.00;83989.50;5082402;28;20371;-78
2022/08/15 01:10:34;;;;;;;;;;;;;;;23.11;100.00;82978.38;5077711;28;19981;-79
2022/08/15 01:13:01;;;;;;;;;;;;;;;23.18;100.00;91897.31;5082592;28;19923;-78
2022/08/15 01:15:27;;;;;;;;;;;;;;;23.20;100.00;101861.41;5091459;28;19916;-79
2022/08/15 01:17:52;;;;;;;;;;;;;;;23.24;100.00;110130.16;5092479;28;20489;-78
2022/08/15 01:20:23;;;;;;;;;;;;;;;23.25;100.00;118756.88;5091427;28;19916;-78
2022/08/15 01:22:56;;;;;;;;;;;;;;;23.28;100.00;125331.50;5091491;28;19916;-78
2022/08/15 01:25:33;;;;;;;;;;;;;;;23.20;100.00;132929.44;5091970;28;19929;-78
2022/08/15 01:27:58;;;;;;;;;;;;;;;23.16;100.00;130150.25;5088540;28;20442;-77
2022/08/15 01:30:26;;;;;;;;;;;;;;;23.12;100.00;137071.97;5102167;28;20023;-79
2022/08/15 01:32:58;;;;;;;;;;;;;;;23.09;100.00;128404.78;5066446;28;19966;-77
2022/08/15 01:35:24;;;;;;;;;;;;;;;23.18;100.00;140555.06;5108379;28;20288;-78
2022/08/15 01:37:51;;;;;;;;;;;;;;;23.16;100.00;139508.94;5079331;28;19920;-77
2022/08/15 01:40:35;;;;;;;;;;;;;;;23.23;100.00;148557.41;5094530;28;19920;-78
2022/08/15 01:43:02;;;;;;;;;;;;;;;23.07;100.00;116994.69;5094298;28;20105;-77
2022/08/15 01:45:29;;;;;;;;;;;;;;;23.04;100.00;136707.34;5094811;28;19923;-77
2022/08/15 01:48:05;;;;;;;;;;;;;;;23.02;100.00;148504.72;5093798;28;19920;-78
2022/08/15 01:50:32;;;;;;;;;;;;;;;23.09;100.00;148522.78;5077324;28;19920;-77
2022/08/15 01:52:58;;;;;;;;;;;;;;;23.10;100.00;148525.31;5093680;28;19916;-78
2022/08/15 01:55:26;;;;;;;;;;;;;;;23.16;100.00;148540.72;5094839;28;19923;-78
2022/08/15 01:57:52;;;;;;;;;;;;;;;23.19;100.00;148548.41;5094370;28;20372;-77
2022/08/15 02:00:18;;;;;;;;;;;;;;;23.11;100.00;148527.88;5089493;28;19966;-78
2022/08/15 02:02:45;;;;;;;;;;;;;;;23.15;100.00;148538.16;5081175;28;19916;-79
2022/08/15 02:05:11;;;;;;;;;;;;;;;23.17;100.00;148542.03;5095116;28;19916;-79
2022/08/15 02:07:36;;;;;;;;;;;;;;;23.20;100.00;148551.00;5095313;28;19920;-78
2022/08/15 02:10:03;;;;;;;;;;;;;;;23.19;100.00;148547.13;5079084;28;19939;-77
2022/08/15 02:12:30;;;;;;;;;;;;;;;23.11;100.00;148527.88;5074360;28;20019;-79
2022/08/15 02:14:56;;;;;;;;;;;;;;;23.09;100.00;148524.03;5094050;28;19920;-78
2022/08/15 02:17:22;;;;;;;;;;;;;;;23.13;100.00;148533.00;5094664;28;19927;-77
2022/08/15 02:19:48;;;;;;;;;;;;;;;23.10;100.00;148525.31;5090067;28;19920;-79
2022/08/15 02:22:14;;;;;;;;;;;;;;;22.99;100.00;148497.03;5073152;28;20389;-79
2022/08/15 02:24:40;;;;;;;;;;;;;;;22.94;100.00;148485.47;5074433;28;20003;-79
2022/08/15 02:27:05;;;;;;;;;;;;;;;22.98;100.00;148495.75;5073938;28;19952;-79
2022/08/15 02:29:31;;;;;;;;;;;;;;;22.95;100.00;148489.34;5074442;28;19916;-79
2022/08/15 02:31:59;;;;;;;;;;;;;;;22.92;100.00;148481.63;5085915;28;20590;-79
2022/08/15 02:34:25;;;;;;;;;;;;;;;22.75;100.00;148439.28;5093182;28;19964;-79
2022/08/15 02:36:51;;;;;;;;;;;;;;;22.68;100.00;148420.03;5073068;28;19921;-78
2022/08/15 02:39:16;;;;;;;;;;;;;;;22.73;100.00;148432.84;5073760;28;19938;-80
2022/08/15 02:41:42;;;;;;;;;;;;;;;22.77;100.00;148443.13;5073679;28;20396;-78
2022/08/15 02:44:14;;;;;;;;;;;;;;;22.76;100.00;148440.56;5075222;28;19912;-77
2022/08/15 02:46:40;;;;;;;;;;;;;;;22.81;100.00;148452.09;5076341;28;19920;-80
2022/08/15 02:49:10;;;;;;;;;;;;;;;22.74;100.00;148435.44;5073348;28;20399;-78
2022/08/15 02:51:36;;;;;;;;;;;;;;;22.71;100.00;148429.00;5074050;28;19916;-79
2022/08/15 02:54:16;;;;;;;;;;;;;;;22.69;100.00;148422.63;5089882;28;20280;-79
2022/08/15 02:56:42;;;;;;;;;;;;;;;22.74;100.00;148436.69;5088913;28;19920;-79
2022/08/15 02:59:07;;;;;;;;;;;;;;;22.75;100.00;148438.00;5081384;28;19923;-79
2022/08/15 03:01:37;;;;;;;;;;;;;;;22.76;100.00;148441.88;5093630;28;20004;-79
2022/08/15 03:04:04;;;;;;;;;;;;;;;22.84;100.00;148461.13;5093323;28;19923;-79
2022/08/15 03:06:32;;;;;;;;;;;;;;;22.89;100.00;148473.94;5073972;28;19931;-78
2022/08/15 03:09:00;;;;;;;;;;;;;;;22.89;100.00;148472.66;5072964;28;19916;-79
2022/08/15 03:11:26;;;;;;;;;;;;;;;22.92;100.00;148480.38;5088901;28;20380;-77
2022/08/15 03:13:53;;;;;;;;;;;;;;;22.96;100.00;148490.59;5092230;28;19916;-77
2022/08/15 03:16:18;;;;;;;;;;;;;;;22.99;100.00;148498.31;5075557;28;19921;-77
2022/08/15 03:18:43;;;;;;;;;;;;;;;22.98;100.00;148495.75;5092505;28;19938;-77
2022/08/15 03:21:10;;;;;;;;;;;;;;;22.93;100.00;148484.22;5092021;28;20287;-76
2022/08/15 03:23:36;;;;;;;;;;;;;;;22.85;100.00;148463.66;5092139;28;19916;-77
2022/08/15 03:26:03;;;;;;;;;;;;;;;22.80;100.00;148450.84;5089212;28;20292;-77
2022/08/15 03:28:34;;;;;;;;;;;;;;;22.72;100.00;148430.31;5091790;28;19920;-77
2022/08/15 03:31:02;;;;;;;;;;;;;;;22.71;100.00;148427.75;5091971;28;20006;-77
2022/08/15 03:33:29;;;;;;;;;;;;;;;22.55;100.00;148389.25;5084025;28;19998;-77
2022/08/15 03:35:55;;;;;;;;;;;;;;;22.53;100.00;148382.84;5098041;28;19932;-77
2022/08/15 03:38:20;;;;;;;;;;;;;;;22.61;100.00;148403.38;5068623;28;19920;-76
2022/08/15 03:40:47;;;;;;;;;;;;;;;22.62;100.00;148405.91;5076500;28;19931;-78
2022/08/15 03:43:14;;;;;;;;;;;;;;;22.65;100.00;148412.34;5086853;28;19974;-77
2022/08/15 03:45:42;;;;;;;;;;;;;;;22.70;100.00;148426.47;5070324;28;19920;-77
2022/08/15 03:48:08;;;;;;;;;;;;;;;22.58;100.00;148395.66;5090858;28;19921;-76
2022/08/15 03:50:33;;;;;;;;;;;;;;;22.60;100.00;148400.78;5090485;28;19922;-76
2022/08/15 03:53:02;;;;;;;;;;;;;;;22.62;100.00;148405.91;5092136;28;19920;-77
2022/08/15 03:55:28;;;;;;;;;;;;;;;22.68;100.00;148420.03;5091199;28;19959;-77
2022/08/15 03:57:54;;;;;;;;;;;;;;;22.61;100.00;148402.06;5073651;28;19928;-77
2022/08/15 04:00:24;;;;;;;;;;;;;;;22.58;100.00;148396.94;5071180;28;19916;-79
2022/08/15 04:02:50;;;;;;;;;;;;;;;22.55;100.00;148387.97;5083414;28;20338;-78
2022/08/15 04:05:16;;;;;;;;;;;;;;;22.58;100.00;148396.94;5090442;28;19980;-77
2022/08/15 04:07:41;;;;;;;;;;;;;;;22.55;100.00;148389.25;5083095;28;19913;-77
2022/08/15 04:10:09;;;;;;;;;;;;;;;22.53;100.00;148382.84;5079890;28;20399;-77
2022/08/15 04:12:39;;;;;;;;;;;;;;;22.46;100.00;148366.16;5080445;28;19913;-79
2022/08/15 04:15:05;;;;;;;;;;;;;;;22.42;100.00;148355.91;5091936;28;20356;-80
2022/08/15 04:17:31;;;;;;;;;;;;;;;22.43;100.00;148358.44;5091541;28;20403;-79
2022/08/15 04:19:56;;;;;;;;;;;;;;;22.45;100.00;148362.28;5091444;28;19916;-78
2022/08/15 04:22:34;;;;;;;;;;;;;;;22.48;100.00;148371.31;5092384;28;19924;-79
2022/08/15 04:25:01;;;;;;;;;;;;;;;22.40;100.00;148352.06;5091817;28;20373;-80
2022/08/15 04:27:26;;;;;;;;;;;;;;;22.42;100.00;148355.91;5083702;28;19928;-80
2022/08/15 04:29:51;;;;;;;;;;;;;;;22.41;100.00;148353.34;5079405;28;19920;-76
2022/08/15 04:32:17;;;;;;;;;;;;;;;22.38;100.00;148345.63;5071701;28;20365;-79
2022/08/15 04:34:42;;;;;;;;;;;;;;;22.33;100.00;148332.81;5071820;28;20011;-79
2022/08/15 04:37:09;;;;;;;;;;;;;;;22.23;100.00;148308.38;5072732;28;19925;-79
2022/08/15 04:39:34;;;;;;;;;;;;;;;22.20;100.00;148300.66;5071902;28;19941;-78
2022/08/15 04:42:01;;;;;;;;;;;;;;;22.29;100.00;148323.75;5083770;28;20300;-78
2022/08/15 04:44:28;;;;;;;;;;;;;;;22.23;100.00;148309.69;5086538;28;19921;-78
2022/08/15 04:46:54;;;;;;;;;;;;;;;22.34;100.00;148335.34;5071584;28;19917;-77
2022/08/15 04:49:19;;;;;;;;;;;;;;;22.35;100.00;148339.19;5071794;28;20311;-78
2022/08/15 04:51:45;;;;;;;;;;;;;;;22.39;100.00;148349.47;5071206;28;19927;-78
2022/08/15 04:54:12;;;;;;;;;;;;;;;22.32;100.00;148330.25;5104874;28;19916;-76
2022/08/15 04:56:37;;;;;;;;;;;;;;;22.35;100.00;148339.19;5070972;28;19916;-76
2022/08/15 04:59:02;;;;;;;;;;;;;;;22.40;100.00;148350.75;5070895;28;20283;-77
2022/08/15 05:01:27;;;;;;;;;;;;;;;22.36;100.00;148340.53;5077967;28;20008;-79
2022/08/15 05:03:53;;;;;;;;;;;;;;;22.39;100.00;148349.47;5095768;28;20378;-79
2022/08/15 05:06:18;;;;;;;;;;;;;;;22.43;100.00;148358.44;5095422;28;19916;-79
2022/08/15 05:08:43;;;;;;;;;;;;;;;22.48;100.00;148370.00;5096021;28;19916;-79
2022/08/15 05:11:14;;;;;;;;;;;;;;;22.54;100.00;148386.72;5080011;28;20388;-79
2022/08/15 05:13:40;;;;;;;;;;;;;;;22.64;100.00;148409.75;5075233;28;19923;-79
2022/08/15 05:16:07;;;;;;;;;;;;;;;22.69;100.00;148423.88;5074753;28;19921;-79
2022/08/15 05:18:33;;;;;;;;;;;;;;;22.74;100.00;148436.69;5076628;28;19916;-78
2022/08/15 05:20:59;;;;;;;;;;;;;;;22.97;100.00;148491.91;5075109;28;19923;-77
2022/08/15 05:23:24;;;;;;;;;;;;;;;23.28;100.00;148571.50;5074745;28;19978;-79
2022/08/15 05:25:52;;;;;;;;;;;;;;;23.35;100.00;148586.91;5075589;28;19916;-78
2022/08/15 05:28:17;;;;;;;;;;;;;;;23.61;100.00;148652.38;5075191;28;19961;-79
2022/08/15 05:30:42;;;;;;;;;;;;;;;23.79;100.00;148698.63;5081464;28;20015;-79
2022/08/15 05:33:26;;;;;;;;;;;;;;;23.76;100.00;148689.66;5084322;28;19920;-79
2022/08/15 05:35:54;;;;;;;;;;;;;;;23.88;100.00;148719.19;5075499;28;19927;-79
2022/08/15 05:38:24;;;;;;;;;;;;;;;23.92;100.00;148730.75;5080221;28;19928;-79
2022/08/15 05:41:07;;;;;;;;;;;;;;;24.19;100.00;148798.84;5090646;28;20076;-79
2022/08/15 05:43:38;;;;;;;;;;;;;;;24.18;100.00;148794.97;5078518;28;19968;-79
2022/08/15 05:46:11;;;;;;;;;;;;;;;24.36;100.00;148841.22;5078421;28;20248;-79
2022/08/15 05:48:38;;;;;;;;;;;;;;;24.61;100.00;148901.63;5078551;28;19916;-79
2022/08/15 05:51:25;;;;;;;;;;;;;;;25.26;100.00;149066.13;5077793;28;19916;-79
2022/08/15 05:53:56;;;;;;;;;;;;;;;24.94;100.00;148985.16;5077198;28;19916;-78
2022/08/15 05:56:43;;;;;;;;;;;;;;;24.97;100.00;148992.88;5075429;28;19920;-77
2022/08/15 05:59:10;;;;;;;;;;;;;;;24.75;100.00;148937.63;5081148;28;20333;-77
2022/08/15 06:01:56;;;;;;;;;;;;;;;24.66;100.00;148915.78;5074619;28;19917;-79
2022/08/15 06:04:31;;;;;;;;;;;;;;;24.60;100.00;148899.09;5055422;28;20192;-76
2022/08/15 06:06:58;;;;;;;;;;;;;;;24.30;100.00;148825.81;5056829;28;19923;-77
2022/08/15 06:09:41;;;;;;;;;;;;;;;24.14;100.00;148784.69;5056738;28;19917;-77
2022/08/15 06:12:09;;;;;;;;;;;;;;;23.84;100.00;148710.22;5056387;28;19917;-77
2022/08/15 06:14:38;;;;;;;;;;;;;;;23.62;100.00;148656.25;5057215;28;19923;-76
2022/08/15 06:17:10;;;;;;;;;;;;;;;23.60;100.00;148651.13;5057003;28;20360;-77
2022/08/15 06:19:37;;;;;;;;;;;;;;;23.65;100.00;148663.94;5084670;28;20201;-77
2022/08/15 06:22:15;;;;;;;;;;;;;;;23.63;100.00;148658.81;5076245;28;20341;-78
2022/08/15 06:24:57;;;;;;;;;;;;;;;23.57;100.00;148643.41;5076587;28;19938;-77
2022/08/15 06:27:24;;;;;;;;;;;;;;;23.47;100.00;148619.00;5071122;28;19920;-78
2022/08/15 06:29:58;;;;;;;;;;;;;;;23.53;100.00;148631.88;5080445;28;19916;-77
2022/08/15 06:32:42;;;;;;;;;;;;;;;23.51;100.00;148626.69;5068672;28;19917;-77
2022/08/15 06:35:17;;;;;;;;;;;;;;;23.57;100.00;148643.41;5070272;28;19921;-77
2022/08/15 06:37:48;;;;;;;;;;;;;;;23.57;100.00;148642.09;5072586;28;19924;-77
2022/08/15 06:40:16;;;;;;;;;;;;;;;23.58;100.00;148644.69;5072671;28;19921;-76
2022/08/15 06:42:43;;;;;;;;;;;;;;;23.62;100.00;148656.25;5072366;28;19924;-76
2022/08/15 06:45:21;;;;;;;;;;;;;;;23.64;100.00;148660.09;5072342;28;19917;-77
2022/08/15 06:47:47;;;;;;;;;;;;;;;23.64;100.00;148661.38;5055253;28;19924;-77
2022/08/15 06:50:15;;;;;;;;;;;;;;;23.76;100.00;148690.91;5072061;28;19917;-77
2022/08/15 06:52:43;;;;;;;;;;;;;;;23.76;100.00;148690.91;5071681;28;19924;-76
2022/08/15 06:55:09;;;;;;;;;;;;;;;23.81;100.00;148702.47;5073018;28;20458;-78
2022/08/15 06:57:39;;;;;;;;;;;;;;;23.84;100.00;148710.22;5071726;28;19956;-79
2022/08/15 07:00:06;;;;;;;;;;;;;;;23.90;100.00;148725.63;5074265;28;19928;-78
2022/08/15 07:02:35;;;;;;;;;;;;;;;23.78;100.00;148694.75;5106095;28;20355;-79
2022/08/15 07:05:07;;;;;;;;;;;;;;;23.51;100.00;148628.00;5106393;28;20010;-79
2022/08/15 07:07:42;;;;;;;;;;;;;;;23.55;100.00;148638.25;5072508;28;19963;-78
2022/08/15 07:10:14;;;;;;;;;;;;;;;23.21;100.00;148552.25;5072888;28;19917;-79
2022/08/15 07:12:52;;;;;;;;;;;;;;;23.26;100.00;148566.41;5071586;28;20326;-78
2022/08/15 07:15:44;;;;;;;;;;;;;;;23.21;100.00;148552.25;5072950;28;19921;-78
2022/08/15 07:18:14;;;;;;;;;;;;;;;23.06;100.00;148515.03;5053463;28;19967;-78
2022/08/15 07:20:39;;;;;;;;;;;;;;;22.90;100.00;148475.19;5093000;28;20007;-78
2022/08/15 07:23:14;;;;;;;;;;;;;;;22.82;100.00;148455.94;5092139;28;19958;-78
2022/08/15 07:25:43;;;;;;;;;;;;;;;22.88;100.00;148470.09;5092559;28;20010;-78
2022/08/15 07:28:09;;;;;;;;;;;;;;;22.91;100.00;148477.78;5092623;28;19943;-78
2022/08/15 07:30:44;;;;;;;;;;;;;;;22.86;100.00;148464.97;5080323;28;19928;-78
2022/08/15 07:33:32;;;;;;;;;;;;;;;22.83;100.00;148458.53;5072100;28;20283;-77
2022/08/15 07:36:05;;;;;;;;;;;;;;;22.77;100.00;148444.41;5064606;28;19986;-78
2022/08/15 07:38:30;;;;;;;;;;;;;;;22.67;100.00;148417.44;5071937;28;20636;-77
2022/08/15 07:41:17;;;;;;;;;;;;;;;22.63;100.00;148408.50;5072057;28;20019;-77
2022/08/15 07:43:47;;;;;;;;;;;;;;;22.53;100.00;148382.84;5091758;28;19920;-78
2022/08/15 07:46:12;;;;;;;;;;;;;;;22.58;100.00;148395.66;5091976;28;19912;-79
2022/08/15 07:48:38;;;;;;;;;;;;;;;22.46;100.00;148364.88;5091742;28;19927;-79
2022/08/15 07:51:09;;;;;;;;;;;;;;;22.43;100.00;148357.19;5092652;28;19920;-78
2022/08/15 07:53:38;;;;;;;;;;;;;;;22.48;100.00;148371.31;5092622;28;20410;-79
2022/08/15 07:56:12;;;;;;;;;;;;;;;22.63;100.00;148408.50;5091884;28;19978;-78
2022/08/15 07:58:39;;;;;;;;;;;;;;;22.89;100.00;148472.66;5091771;28;19916;-78
2022/08/15 08:01:33;;;;;;;;;;;;;;;22.91;100.00;148479.06;5093173;28;19955;-79
2022/08/15 08:04:19;;;;;;;;;;;;;;;22.99;100.00;148498.31;5081307;28;19966;-78
2022/08/15 08:07:07;;;;;;;;;;;;;;;22.80;100.00;148450.84;5092443;28;19977;-77
2022/08/15 08:09:39;;;;;;;;;;;;;;;23.01;100.00;148503.47;5083811;28;19916;-78
2022/08/15 08:12:30;;;;;;;;;;;;;;;23.07;100.00;148518.88;5091828;28;19916;-78
2022/08/15 08:15:10;;;;;;;;;;;;;;;23.43;100.00;148608.75;5074390;28;19931;-78
2022/08/15 08:17:45;;;;;;;;;;;;;;;23.84;100.00;148711.50;5072149;28;20000;-78
2022/08/15 08:20:19;;;;;;;;;;;;;;;24.11;100.00;148778.25;5071700;28;19916;-77
2022/08/15 08:22:51;;;;;;;;;;;;;;;24.71;100.00;148928.59;5071866;28;19921;-78
2022/08/15 08:25:23;;;;;;;;;;;;;;;25.32;100.00;149080.28;5070958;28;19923;-79
2022/08/15 08:28:06;;;;;;;;;;;;;;;25.46;100.00;149113.72;5071745;28;19923;-78
2022/08/15 08:30:41;;;;;;;;;;;;;;;25.68;100.00;149170.25;5071553;28;19916;-78
2022/08/15 08:33:13;;;;;;;;;;;;;;;25.49;100.00;149122.69;5070980;28;19912;-77
2022/08/15 08:36:09;;;;;;;;;;;;;;;25.39;100.00;149098.28;5074527;28;19917;-76
2022/08/15 08:38:34;;;;;;;;;;;;;;;24.88;100.00;148969.75;5065075;28;19966;-76
2022/08/15 08:44:03;;;;;;;;;;;;;;;24.90;100.00;148974.84;5075991;28;19971;-76
2022/08/15 08:46:41;;;;;;;;;;;;;;;24.82;100.00;148954.31;5074546;28;20012;-77
2022/08/15 08:49:12;;;;;;;;;;;;;;;24.50;100.00;148875.91;5074597;28;20332;-76
2022/08/15 08:52:04;;;;;;;;;;;;;;;25.00;100.00;148999.25;5074508;28;20436;-76
2022/08/15 08:54:32;;;;;;;;;;;;;;;24.97;100.00;148992.88;5069969;28;19942;-77
2022/08/15 08:57:00;;;;;;;;;;;;;;;24.89;100.00;148973.59;5108279;28;20394;-77
2022/08/15 08:59:25;;;;;;;;;;;;;;;25.08;100.00;149019.84;5107910;28;19927;-76
2022/08/15 09:01:58;;;;;;;;;;;;;;;25.10;100.00;149024.97;5107802;28;19924;-77
2022/08/15 09:04:27;;;;;;;;;;;;;;;25.40;100.00;149099.56;5074382;28;20265;-76
2022/08/15 09:06:55;;;;;;;;;;;;;;;25.61;100.00;149152.28;5098239;28;19982;-78
2022/08/15 09:09:28;;;;;;;;;;;;;;;25.78;100.00;149195.97;5058763;28;19929;-77
2022/08/15 09:12:00;;;;;;;;;;;;;;;25.51;100.00;149126.56;5074789;28;19920;-75
2022/08/15 09:14:26;;;;;;;;;;;;;;;25.62;100.00;149154.81;5090559;28;19928;-78
2022/08/15 09:16:52;;;;;;;;;;;;;;;25.42;100.00;149104.75;5074151;28;19978;-78
2022/08/15 09:19:23;;;;;;;;;;;;;;;25.39;100.00;149098.28;5073393;28;20337;-77
2022/08/15 09:21:49;;;;;;;;;;;;;;;25.07;100.00;149017.28;5073058;28;19923;-75
2022/08/15 09:24:15;;;;;;;;;;;;;;;25.39;100.00;149098.28;5073251;28;20282;-77
2022/08/15 09:26:47;;;;;;;;;;;;;;;25.47;100.00;149116.31;5072946;28;19923;-78
2022/08/15 09:29:12;;;;;;;;;;;;;;;25.27;100.00;149067.41;5072616;28;19916;-78
2022/08/15 09:31:39;;;;;;;;;;;;;;;25.16;100.00;149039.13;5072999;28;20065;-76
2022/08/15 09:34:06;;;;;;;;;;;;;;;25.27;100.00;149067.41;5072346;28;19962;-76
2022/08/15 09:36:37;;;;;;;;;;;;;;;25.22;100.00;149055.81;5072972;28;20011;-76
2022/08/15 09:39:25;;;;;;;;;;;;;;;25.42;100.00;149106.00;5072822;28;19927;-77
2022/08/15 09:42:00;;;;;;;;;;;;;;;25.55;100.00;149136.84;5071710;28;20292;-76
2022/08/15 09:44:31;;;;;;;;;;;;;;;25.85;100.00;149212.69;5072512;28;20342;-79
2022/08/15 09:47:16;;;;;;;;;;;;;;;25.70;100.00;149175.44;5072371;28;19959;-76
2022/08/15 09:49:44;;;;;;;;;;;;;;;25.47;100.00;149117.56;5072194;28;19917;-79
2022/08/15 09:52:21;;;;;;;;;;;;;;;25.54;100.00;149134.28;5072468;28;19920;-76
2022/08/15 09:54:50;;;;;;;;;;;;;;;25.72;100.00;149179.28;5072223;28;20365;-77
2022/08/15 09:57:22;;;;;;;;;;;;;;;25.57;100.00;149143.31;5072037;28;19920;-75
2022/08/15 09:59:52;;;;;;;;;;;;;;;25.53;100.00;149133.00;5072630;28;19917;-77
2022/08/15 10:02:19;;;;;;;;;;;;;;;25.68;100.00;149170.25;5071728;28;19916;-77
2022/08/15 10:04:44;;;;;;;;;;;;;;;25.75;100.00;149187.00;5071958;28;19956;-78
2022/08/15 10:07:09;;;;;;;;;;;;;;;25.83;100.00;149206.28;5072236;28;19944;-77
2022/08/15 10:09:36;;;;;;;;;;;;;;;25.29;100.00;149072.56;5073236;28;20030;-77
2022/08/15 10:12:09;;;;;;;;;;;;;;;25.43;100.00;149107.28;5071955;28;19920;-77
2022/08/15 10:14:42;;;;;;;;;;;;;;;25.34;100.00;149084.13;5072551;28;19917;-76
2022/08/15 10:17:34;;;;;;;;;;;;;;;25.61;100.00;149152.28;5071831;28;19917;-76
2022/08/15 10:20:15;;;;;;;;;;;;;;;25.56;100.00;149140.72;5071171;28;19916;-77
2022/08/15 10:23:00;;;;;;;;;;;;;;;25.87;100.00;149216.53;5072203;28;19916;-77
2022/08/15 10:25:35;;;;;;;;;;;;;;;25.75;100.00;149188.25;5071840;28;19921;-76
2022/08/15 10:28:06;;;;;;;;;;;;;;;25.91;100.00;149226.84;5072288;28;19923;-76
2022/08/15 10:30:34;;;;;;;;;;;;;;;25.99;100.00;149247.44;5072238;28;19917;-76
2022/08/15 10:33:00;;;;;;;;;;;;;;;25.98;100.00;149244.91;5071578;28;19921;-77
2022/08/15 10:35:31;;;;;;;;;;;;;;;25.91;100.00;149226.84;5072972;28;19921;-78
2022/08/15 10:38:02;;;;;;;;;;;;;;;25.95;100.00;149238.41;5071509;28;19927;-78
2022/08/15 10:40:27;;;;;;;;;;;;;;;26.43;100.00;149356.75;5071475;28;19916;-79
2022/08/15 10:43:03;;;;;;;;;;;;;;;26.46;100.00;149364.47;5072280;28;20031;-76
2022/08/15 10:45:46;;;;;;;;;;;;;;;26.39;100.00;149347.75;5072820;28;19916;-75
2022/08/15 10:48:15;;;;;;;;;;;;;;;26.52;100.00;149381.22;5072028;28;20245;-78
2022/08/15 10:50:53;;;;;;;;;;;;;;;26.69;100.00;149422.41;5071967;28;19916;-78
2022/08/15 10:53:27;;;;;;;;;;;;;;;26.68;100.00;149421.13;5071354;28;19986;-77
2022/08/15 10:56:05;;;;;;;;;;;;;;;26.72;100.00;149430.13;5072357;28;19916;-78
2022/08/15 10:58:32;;;;;;;;;;;;;;;26.58;100.00;149394.06;5070921;28;19917;-78
2022/08/15 11:01:03;;;;;;;;;;;;;;;26.87;100.00;149467.44;5080176;28;19972;-77
2022/08/15 11:03:50;;;;;;;;;;;;;;;26.94;100.00;149484.16;5091354;28;19995;-78
2022/08/15 11:06:18;;;;;;;;;;;;;;;27.15;100.00;149538.19;5089568;28;20296;-75
2022/08/15 11:08:55;;;;;;;;;;;;;;;27.04;100.00;149511.19;5083560;28;19924;-78
2022/08/15 11:11:23;;;;;;;;;;;;;;;26.81;100.00;149452.00;5076704;28;19982;-78
2022/08/15 11:13:57;;;;;;;;;;;;;;;26.89;100.00;149471.31;5072159;28;20229;-78
2022/08/15 11:16:34;;;;;;;;;;;;;;;27.21;100.00;149552.38;5072596;28;19924;-77
2022/08/15 11:19:10;;;;;;;;;;;;;;;26.81;100.00;149453.28;5073442;28;20030;-77
2022/08/15 11:21:42;;;;;;;;;;;;;;;26.89;100.00;149471.31;5071260;28;19924;-77
2022/08/15 11:24:10;;;;;;;;;;;;;;;26.86;100.00;149466.19;5104349;28;19927;-76
2022/08/15 11:26:37;;;;;;;;;;;;;;;27.01;100.00;149502.19;5071895;28;20305;-79
2022/08/15 11:29:05;;;;;;;;;;;;;;;27.00;100.00;149499.59;5071796;28;19917;-78
2022/08/15 11:31:31;;;;;;;;;;;;;;;26.84;100.00;149461.00;5072574;28;20365;-79
2022/08/15 11:34:01;;;;;;;;;;;;;;;26.57;100.00;149391.47;5083580;28;19922;-78
2022/08/15 11:36:27;;;;;;;;;;;;;;;26.44;100.00;149360.59;5092117;28;19985;-79
2022/08/15 11:38:54;;;;;;;;;;;;;;;26.59;100.00;149397.94;5092903;28;19920;-78
2022/08/15 11:41:22;;;;;;;;;;;;;;;26.60;100.00;149400.50;5092580;28;19923;-77
2022/08/15 11:43:51;;;;;;;;;;;;;;;26.64;100.00;149409.50;5083549;28;20258;-78
2022/08/15 11:46:22;;;;;;;;;;;;;;;26.80;100.00;149450.75;5105152;28;19920;-77
2022/08/15 11:48:54;;;;;;;;;;;;;;;26.47;100.00;149368.31;5071556;28;20027;-76
2022/08/15 11:51:25;;;;;;;;;;;;;;;26.37;100.00;149342.63;5072517;28;20007;-77
2022/08/15 11:54:05;;;;;;;;;;;;;;;26.26;100.00;149315.63;5071450;28;19916;-76
2022/08/15 11:56:42;;;;;;;;;;;;;;;26.46;100.00;149365.78;5106121;28;19917;-79
2022/08/15 11:59:34;;;;;;;;;;;;;;;26.34;100.00;149334.91;5105330;28;19923;-76
2022/08/15 12:02:07;;;;;;;;;;;;;;;26.36;100.00;149340.03;5069499;28;19924;-77
2022/08/15 12:04:35;;;;;;;;;;;;;;;26.34;100.00;149334.91;5085175;28;19916;-77
2022/08/15 12:07:20;;;;;;;;;;;;;;;26.12;100.00;149280.91;5093069;28;19916;-78
2022/08/15 12:09:55;;;;;;;;;;;;;;;26.32;100.00;149331.06;5090826;28;20023;-76
2022/08/15 12:12:26;;;;;;;;;;;;;;;26.29;100.00;149322.06;5091770;28;19916;-75
2022/08/15 12:14:55;;;;;;;;;;;;;;;26.33;100.00;149332.31;5093650;28;19916;-78
2022/08/15 12:17:25;;;;;;;;;;;;;;;26.47;100.00;149368.31;5091682;28;19916;-78
2022/08/15 12:19:55;;;;;;;;;;;;;;;26.57;100.00;149391.47;5091932;28;20390;-78
2022/08/15 12:22:30;;;;;;;;;;;;;;;26.61;100.00;149401.78;5091557;28;19920;-79
2022/08/15 12:24:55;;;;;;;;;;;;;;;26.98;100.00;149494.47;5084878;28;20031;-78
2022/08/15 12:27:21;;;;;;;;;;;;;;;27.31;100.00;149576.81;5052149;28;20377;-79
2022/08/15 12:29:46;;;;;;;;;;;;;;;27.51;100.00;149627.06;5051729;28;19913;-79
2022/08/15 12:32:14;;;;;;;;;;;;;;;27.18;100.00;149544.66;5051975;28;19924;-78
2022/08/15 12:34:42;;;;;;;;;;;;;;;27.34;100.00;149585.84;5051470;28;19916;-79
2022/08/15 12:37:10;;;;;;;;;;;;;;;27.30;100.00;149574.22;5050974;28;20353;-76
2022/08/15 12:39:41;;;;;;;;;;;;;;;27.62;100.00;149654.06;5066878;28;20511;-76
2022/08/15 12:42:09;;;;;;;;;;;;;;;27.93;100.00;149733.84;5051501;28;20427;-78
2022/08/15 12:44:37;;;;;;;;;;;;;;;27.68;100.00;149669.53;5051002;28;19917;-75
2022/08/15 12:47:03;;;;;;;;;;;;;;;27.55;100.00;149637.38;5052389;28;19916;-76
2022/08/15 12:49:28;;;;;;;;;;;;;;;27.80;100.00;149699.16;5057248;28;19923;-79